DLH4MJ EDLW-LFSB
Flight info
| Callsign | DLH4MJ |
|---|---|
| Flight time | N/A |
| Altitude | 31000 |
| Route | GMH8Q/06 GMH Q603 TESGA L603 BOMBI T721 SUNEG T715 DENEL/N0414F230 T715 LIPKA/N0360F130 T715 RIGVI DCT |
| Aircraft | A320/M-SDE3FGHIRWY/LB1 |
Departure
| Time | N/A |
|---|---|
| Airport | Dortmund Airport (EDLW) |
Arrival
| Time | 2026-05-05 13:22 |
|---|---|
| Airport | EuroAirport Basel–Mulhouse–Freiburg (LFSB) |
| Time | Latitude | Longitude | Altitude | Speed | Heading |
|---|---|---|---|---|---|
| 2026-05-05 12:48 | 50.03729 | 8.80934 | 30828 ft | 406 kts | 167° |
| 2026-05-05 12:48 | 50.01183 | 8.82130 | 30824 ft | 405 kts | 166° |
| 2026-05-05 12:48 | 49.95795 | 8.84697 | 30835 ft | 408 kts | 166° |
| 2026-05-05 12:49 | 49.90259 | 8.87323 | 30841 ft | 423 kts | 166° |
| 2026-05-05 12:49 | 49.84550 | 8.90021 | 30835 ft | 432 kts | 166° |
| 2026-05-05 12:50 | 49.78795 | 8.92731 | 30836 ft | 432 kts | 166° |
| 2026-05-05 12:50 | 49.73039 | 8.95424 | 30836 ft | 432 kts | 166° |
| 2026-05-05 12:51 | 49.67251 | 8.97834 | 30837 ft | 429 kts | 174° |
| 2026-05-05 12:51 | 49.61337 | 8.97773 | 30838 ft | 425 kts | 190° |
| 2026-05-05 12:52 | 49.55512 | 8.96143 | 30839 ft | 425 kts | 191° |
| 2026-05-05 12:52 | 49.49691 | 8.94536 | 30836 ft | 425 kts | 190° |
| 2026-05-05 12:53 | 49.43905 | 8.92959 | 30840 ft | 425 kts | 190° |
| 2026-05-05 12:53 | 49.38066 | 8.91366 | 30834 ft | 425 kts | 190° |
| 2026-05-05 12:54 | 49.29325 | 8.88985 | 30828 ft | 425 kts | 189° |
| 2026-05-05 12:55 | 49.23518 | 8.87337 | 30826 ft | 425 kts | 194° |
| 2026-05-05 12:55 | 49.18094 | 8.83664 | 30830 ft | 430 kts | 212° |
| 2026-05-05 12:56 | 49.13529 | 8.77755 | 30833 ft | 433 kts | 219° |
| 2026-05-05 12:56 | 49.09010 | 8.71575 | 30838 ft | 434 kts | 218° |
| 2026-05-05 12:57 | 49.04526 | 8.65499 | 30841 ft | 435 kts | 218° |
| 2026-05-05 12:57 | 48.99990 | 8.59385 | 30841 ft | 436 kts | 218° |
| 2026-05-05 12:58 | 48.95294 | 8.53551 | 30842 ft | 435 kts | 214° |
| 2026-05-05 12:58 | 48.90401 | 8.48118 | 30846 ft | 435 kts | 213° |
| 2026-05-05 12:59 | 48.85492 | 8.42725 | 30852 ft | 437 kts | 213° |
| 2026-05-05 12:59 | 48.80599 | 8.37226 | 30851 ft | 438 kts | 214° |
| 2026-05-05 13:00 | 48.73290 | 8.28965 | 30849 ft | 439 kts | 213° |
| 2026-05-05 13:01 | 48.63412 | 8.18016 | 30855 ft | 441 kts | 213° |
| 2026-05-05 13:01 | 48.59294 | 8.13463 | 30859 ft | 441 kts | 213° |
| 2026-05-05 13:02 | 48.54336 | 8.07984 | 30856 ft | 442 kts | 213° |
| 2026-05-05 13:02 | 48.49366 | 8.02515 | 30855 ft | 442 kts | 213° |
| 2026-05-05 13:03 | 48.44389 | 7.97051 | 30725 ft | 444 kts | 213° |
| 2026-05-05 13:03 | 48.41892 | 7.94312 | 30351 ft | 445 kts | 213° |
| 2026-05-05 13:03 | 48.39334 | 7.91694 | 29986 ft | 444 kts | 207° |
| 2026-05-05 13:04 | 48.36577 | 7.89638 | 29570 ft | 442 kts | 199° |
| 2026-05-05 13:04 | 48.33664 | 7.88204 | 29150 ft | 440 kts | 192° |
| 2026-05-05 13:04 | 48.30652 | 7.87409 | 28736 ft | 440 kts | 185° |
| 2026-05-05 13:04 | 48.27594 | 7.86897 | 28328 ft | 442 kts | 185° |
| 2026-05-05 13:05 | 48.24536 | 7.86368 | 27922 ft | 444 kts | 187° |
| 2026-05-05 13:05 | 48.21561 | 7.85181 | 27521 ft | 440 kts | 201° |
| 2026-05-05 13:05 | 48.18919 | 7.82964 | 27135 ft | 434 kts | 214° |
| 2026-05-05 13:05 | 48.16729 | 7.79850 | 26729 ft | 437 kts | 228° |
| 2026-05-05 13:06 | 48.15100 | 7.75970 | 26299 ft | 443 kts | 243° |
| 2026-05-05 13:06 | 48.14155 | 7.71562 | 25923 ft | 449 kts | 257° |
| 2026-05-05 13:06 | 48.13870 | 7.66892 | 25555 ft | 449 kts | 264° |
| 2026-05-05 13:06 | 48.13694 | 7.62350 | 25187 ft | 436 kts | 262° |
| 2026-05-05 13:07 | 48.13060 | 7.58018 | 24819 ft | 420 kts | 247° |
| 2026-05-05 13:07 | 48.11740 | 7.54187 | 24464 ft | 412 kts | 232° |
| 2026-05-05 13:07 | 48.09859 | 7.51033 | 24098 ft | 400 kts | 219° |
| 2026-05-05 13:07 | 48.07600 | 7.48702 | 23603 ft | 393 kts | 206° |
| 2026-05-05 13:08 | 48.05090 | 7.47277 | 23049 ft | 377 kts | 192° |
| 2026-05-05 13:08 | 48.02547 | 7.46787 | 22479 ft | 362 kts | 180° |
| 2026-05-05 13:08 | 48.00084 | 7.47128 | 21907 ft | 350 kts | 168° |
| 2026-05-05 13:08 | 47.97794 | 7.48203 | 21384 ft | 339 kts | 157° |
| 2026-05-05 13:09 | 47.95752 | 7.49902 | 20873 ft | 336 kts | 146° |
| 2026-05-05 13:09 | 47.93836 | 7.51845 | 20374 ft | 333 kts | 150° |
| 2026-05-05 13:09 | 47.91808 | 7.53535 | 19819 ft | 340 kts | 155° |
| 2026-05-05 13:09 | 47.89589 | 7.55021 | 19191 ft | 355 kts | 160° |
| 2026-05-05 13:10 | 47.87280 | 7.56204 | 18614 ft | 356 kts | 165° |
| 2026-05-05 13:10 | 47.84863 | 7.57065 | 18006 ft | 358 kts | 171° |
| 2026-05-05 13:10 | 47.82399 | 7.57664 | 17328 ft | 360 kts | 172° |
| 2026-05-05 13:10 | 47.79928 | 7.58261 | 16673 ft | 361 kts | 172° |
| 2026-05-05 13:11 | 47.77436 | 7.58868 | 16029 ft | 363 kts | 172° |
| 2026-05-05 13:11 | 47.74964 | 7.59476 | 15390 ft | 356 kts | 172° |
| 2026-05-05 13:11 | 47.72561 | 7.60073 | 14770 ft | 343 kts | 173° |
| 2026-05-05 13:11 | 47.70240 | 7.60646 | 14168 ft | 335 kts | 173° |
| 2026-05-05 13:12 | 47.67953 | 7.61204 | 13559 ft | 331 kts | 173° |
| 2026-05-05 13:12 | 47.65694 | 7.61756 | 12894 ft | 327 kts | 172° |
| 2026-05-05 13:12 | 47.63559 | 7.62889 | 12250 ft | 329 kts | 156° |
| 2026-05-05 13:12 | 47.61544 | 7.64545 | 11610 ft | 333 kts | 154° |
| 2026-05-05 13:13 | 47.59530 | 7.66253 | 10974 ft | 335 kts | 154° |
| 2026-05-05 13:13 | 47.57504 | 7.67979 | 10362 ft | 336 kts | 154° |
| 2026-05-05 13:13 | 47.55471 | 7.69716 | 9766 ft | 337 kts | 154° |
| 2026-05-05 13:13 | 47.53421 | 7.71425 | 9100 ft | 336 kts | 158° |
| 2026-05-05 13:14 | 47.51306 | 7.72687 | 8447 ft | 321 kts | 163° |
| 2026-05-05 13:14 | 47.49939 | 7.73433 | 8031 ft | 312 kts | 163° |
| 2026-05-05 13:14 | 47.48256 | 7.74397 | 7483 ft | 302 kts | 162° |
| 2026-05-05 13:15 | 47.46341 | 7.75458 | 7117 ft | 284 kts | 163° |
| 2026-05-05 13:15 | 47.44542 | 7.76445 | 6750 ft | 269 kts | 163° |
| 2026-05-05 13:15 | 47.42830 | 7.77390 | 6390 ft | 256 kts | 163° |
| 2026-05-05 13:15 | 47.41171 | 7.78038 | 6049 ft | 236 kts | 184° |
| 2026-05-05 13:16 | 47.39692 | 7.77433 | 6015 ft | 218 kts | 216° |
| 2026-05-05 13:16 | 47.38668 | 7.75803 | 6026 ft | 219 kts | 237° |
| 2026-05-05 13:16 | 47.38058 | 7.73734 | 6010 ft | 222 kts | 254° |
| 2026-05-05 13:16 | 47.37920 | 7.71457 | 6023 ft | 226 kts | 271° |
| 2026-05-05 13:17 | 47.38291 | 7.69195 | 6004 ft | 231 kts | 290° |
| 2026-05-05 13:17 | 47.39164 | 7.67194 | 5943 ft | 233 kts | 308° |
| 2026-05-05 13:17 | 47.40455 | 7.65749 | 5669 ft | 237 kts | 329° |
| 2026-05-05 13:17 | 47.41948 | 7.64708 | 5318 ft | 239 kts | 331° |
| 2026-05-05 13:18 | 47.43465 | 7.63674 | 4936 ft | 240 kts | 331° |
| 2026-05-05 13:18 | 47.44968 | 7.62639 | 4573 ft | 242 kts | 331° |
| 2026-05-05 13:18 | 47.46515 | 7.61570 | 4173 ft | 241 kts | 332° |
| 2026-05-05 13:18 | 47.48010 | 7.60538 | 3814 ft | 234 kts | 332° |
| 2026-05-05 13:19 | 47.49462 | 7.59532 | 3443 ft | 227 kts | 333° |
| 2026-05-05 13:19 | 47.50855 | 7.58568 | 3097 ft | 220 kts | 333° |
| 2026-05-05 13:19 | 47.52200 | 7.57637 | 2788 ft | 204 kts | 333° |
| 2026-05-05 13:19 | 47.53434 | 7.56781 | 2456 ft | 189 kts | 334° |
| 2026-05-05 13:20 | 47.54561 | 7.55999 | 2181 ft | 170 kts | 334° |
| 2026-05-05 13:20 | 47.55596 | 7.55279 | 1885 ft | 159 kts | 334° |
| 2026-05-05 13:20 | 47.56568 | 7.54602 | 1621 ft | 150 kts | 335° |
| 2026-05-05 13:20 | 47.57495 | 7.53955 | 1377 ft | 144 kts | 335° |
| 2026-05-05 13:21 | 47.58395 | 7.53323 | 1168 ft | 143 kts | 336° |
| 2026-05-05 13:21 | 47.59293 | 7.52702 | 985 ft | 141 kts | 336° |
| 2026-05-05 13:21 | 47.60156 | 7.52108 | 893 ft | 124 kts | 336° |
| 2026-05-05 13:21 | 47.60790 | 7.51671 | 882 ft | 76 kts | 335° |
| 2026-05-05 13:22 | 47.61132 | 7.51435 | 875 ft | 44 kts | 335° |
| 2026-05-05 13:22 | 47.61404 | 7.51249 | 874 ft | 42 kts | 335° |
| 2026-05-05 13:22 | 47.61650 | 7.51075 | 877 ft | 30 kts | 334° |
| 2026-05-05 13:22 | 47.61781 | 7.51098 | 877 ft | 15 kts | 60° |
| 2026-05-05 13:23 | 47.61795 | 7.51248 | 878 ft | 15 kts | 112° |
| 2026-05-05 13:23 | 47.61702 | 7.51327 | 877 ft | 17 kts | 159° |
| 2026-05-05 13:23 | 47.61575 | 7.51418 | 875 ft | 23 kts | 155° |
| 2026-05-05 13:23 | 47.61422 | 7.51523 | 873 ft | 26 kts | 154° |
| 2026-05-05 13:24 | 47.61262 | 7.51634 | 877 ft | 25 kts | 155° |
| 2026-05-05 13:24 | 47.61103 | 7.51745 | 881 ft | 25 kts | 154° |
| 2026-05-05 13:24 | 47.60941 | 7.51858 | 880 ft | 27 kts | 155° |
| 2026-05-05 13:24 | 47.60770 | 7.51976 | 878 ft | 29 kts | 155° |
| 2026-05-05 13:25 | 47.60586 | 7.52104 | 880 ft | 29 kts | 155° |
| 2026-05-05 13:25 | 47.60404 | 7.52231 | 886 ft | 28 kts | 155° |
| 2026-05-05 13:25 | 47.60227 | 7.52356 | 888 ft | 28 kts | 154° |
| 2026-05-05 13:25 | 47.60057 | 7.52473 | 888 ft | 22 kts | 156° |
| 2026-05-05 13:26 | 47.59991 | 7.52615 | 888 ft | 15 kts | 151° |
| 2026-05-05 13:26 | 47.59889 | 7.52682 | 887 ft | 17 kts | 155° |
| 2026-05-05 13:26 | 47.59883 | 7.52788 | 887 ft | 0 kts | 39° |